メインページ
METAR-TAF:

METAR-TAF

空港 :

アシガバート空港

アシガバート, トルクメニスタン

緯度: 37-59N, 経度: 058-22E, 海抜: 211m

現時点の気象観測

当レポートは41分前の18:00(UTC)に作成
東/南東の風 8kt
気温 7°C
湿度 100%
気圧 1017 hPa
視程: 0200m

METAR: UTAA 111800Z 11008KT 0200 R12L/0700N R12R/0700N FG VV002 07/07 Q1017 R88/70D TEMPO 0100 FG VV001

時間: 23:41 (18:41 UTC)

予報

当レポートは1時間29分前の17:12(UTC)に作成
予報は11日の 17時(UTC)から 12日の 18時(UTC)まで有効
東/南東の風 14kt
視程: 0600m
高度300ftの
11日の 17時(UTC)から 11日の 20時(UTC)まで一時的に
視程: 0200m
高度200ftの
11日の 20時(UTC)から 12日の 06時(UTC)まで一時的に
視程: 0100m
高度100ftの
12日の 06時(UTC)から 12日の 08時(UTC)まで徐々に
東/南東の風 18kt
視程: 4000m
高度700ftの千切れ雲あり
12日の 08時(UTC)から 12日の 10時(UTC)まで一時的に
視程: 1500m
高度400ftの千切れ雲あり

TAF: UTAA 111712Z 1117/1218 12014KT 0600 FG VV003 530005 TEMPO 1117/1120 0200 FG VV002 TEMPO 1120/1206 0100 FG VV001 BECMG 1206/1208 12018KT 4000 BR BKN007 TEMPO 1208/1210 1500 BR BKN004

4,000以上の空港の気象観測と天気予報(METAR報とTAF報)

利用可能な観測所は地図上に黄色い丸と赤い丸で示す。

丸の上にカーソルを重ねると観測所名を参照できる。

次にクリックすると気象観測と天気予報を参照できる。

マップの切り替え:黒色「×」印の緑ボタンをクリックして拡大、「-」印の緑ボタンをクリックして縮小、緑色の三角印をクリックして隣りの地図に切り替え


METAR-TAF: